Time;durP1;ratioP1;P1;durP2;ratioP2;P2;SDS_P1;SDS_P2;PMS_P1;PMS_P2;Temp;Humidity;BMP_temperature;BMP_pressure;BME280_temperature;BME280_humidity;BME280_pressure;Samples;Min_cycle;Max_cycle;Signal;HPM_P1;HPM_P2
2022/03/04 00:01:55;;;;;;;;;;;2.70;99.90;;;;;;4927721;29;20332;-79
2022/03/04 00:04:22;;;;;;;;;;;2.70;99.90;;;;;;4948633;28;19937;-79
2022/03/04 00:06:50;;;;;;;;;;;2.60;99.90;;;;;;4944356;28;20029;-79
2022/03/04 00:09:19;;;;;;;;;;;2.60;99.90;;;;;;4946746;28;20350;-79
2022/03/04 00:11:47;;;;;;;;;;;2.60;99.90;;;;;;4945347;28;19927;-79
2022/03/04 00:14:14;;;;;;;;;;;2.60;99.90;;;;;;4949434;28;20467;-79
2022/03/04 00:16:41;;;;;;;;;;;2.60;99.90;;;;;;4946881;28;20539;-79
2022/03/04 00:19:09;;;;;;;;;;;2.60;99.90;;;;;;4948170;28;19940;-79
2022/03/04 00:21:36;;;;;;;;;;;2.60;99.90;;;;;;4945133;28;20368;-78
2022/03/04 00:24:04;;;;;;;;;;;2.50;99.90;;;;;;4945022;28;19934;-78
2022/03/04 00:26:32;;;;;;;;;;;2.60;99.90;;;;;;4947339;28;19981;-79
2022/03/04 00:29:00;;;;;;;;;;;2.50;99.90;;;;;;4927427;29;20316;-79
2022/03/04 00:31:27;;;;;;;;;;;2.50;99.90;;;;;;4944630;28;19927;-79
2022/03/04 00:33:54;;;;;;;;;;;2.50;99.90;;;;;;4949499;28;20436;-80
2022/03/04 00:36:22;;;;;;;;;;;2.50;99.90;;;;;;4943538;28;19990;-79
2022/03/04 00:38:49;;;;;;;;;;;2.50;99.90;;;;;;4948585;28;19942;-79
2022/03/04 00:41:17;;;;;;;;;;;2.50;99.90;;;;;;4944287;28;19962;-79
2022/03/04 00:43:45;;;;;;;;;;;2.50;99.90;;;;;;4946613;28;19930;-79
2022/03/04 00:46:13;;;;;;;;;;;2.50;99.90;;;;;;4947921;28;20349;-79
2022/03/04 00:48:40;;;;;;;;;;;2.50;99.90;;;;;;4944368;28;19930;-78
2022/03/04 00:51:07;;;;;;;;;;;2.40;99.90;;;;;;4947820;28;19934;-79
2022/03/04 00:53:34;;;;;;;;;;;2.40;99.90;;;;;;4946535;28;19926;-78
2022/03/04 00:56:01;;;;;;;;;;;2.40;99.90;;;;;;4945308;28;19927;-78
2022/03/04 00:58:28;;;;;;;;;;;2.40;99.90;;;;;;4942768;28;19934;-78
2022/03/04 01:00:56;;;;;;;;;;;2.40;99.90;;;;;;4945983;28;19933;-78
2022/03/04 01:03:23;;;;;;;;;;;2.40;99.90;;;;;;4945482;28;20391;-79
2022/03/04 01:05:50;;;;;;;;;;;2.40;99.90;;;;;;4944118;28;19969;-79
2022/03/04 01:08:17;;;;;;;;;;;2.30;99.90;;;;;;4930617;29;19927;-78
2022/03/04 01:10:44;;;;;;;;;;;2.30;99.90;;;;;;4946683;28;19962;-79
2022/03/04 01:13:11;;;;;;;;;;;2.30;99.90;;;;;;4942319;28;19935;-79
2022/03/04 01:15:38;;;;;;;;;;;2.30;99.90;;;;;;4946166;28;19927;-78
2022/03/04 01:18:07;;;;;;;;;;;2.30;99.90;;;;;;4944092;28;20448;-79
2022/03/04 01:20:34;;;;;;;;;;;2.30;99.90;;;;;;4943308;28;20412;-79
2022/03/04 01:23:01;;;;;;;;;;;2.30;99.90;;;;;;4944856;28;19938;-78
2022/03/04 01:25:28;;;;;;;;;;;2.20;99.90;;;;;;4930604;29;19945;-78
2022/03/04 01:27:55;;;;;;;;;;;2.30;99.90;;;;;;4927538;28;20419;-79
2022/03/04 01:30:22;;;;;;;;;;;2.20;99.90;;;;;;4949542;28;19966;-79
2022/03/04 01:32:49;;;;;;;;;;;2.20;99.90;;;;;;4942273;28;19943;-79
2022/03/04 01:35:20;;;;;;;;;;;2.20;99.90;;;;;;4946904;28;19977;-78
2022/03/04 01:37:47;;;;;;;;;;;2.20;99.90;;;;;;4948662;28;20035;-78
2022/03/04 01:40:14;;;;;;;;;;;2.10;99.90;;;;;;4944085;28;20033;-78
2022/03/04 01:42:41;;;;;;;;;;;2.20;99.90;;;;;;4946340;28;20305;-78
2022/03/04 01:45:09;;;;;;;;;;;2.10;99.90;;;;;;4933225;29;19933;-79
2022/03/04 01:47:39;;;;;;;;;;;2.10;99.90;;;;;;4950889;28;19934;-79
2022/03/04 01:50:06;;;;;;;;;;;2.10;99.90;;;;;;4946525;28;20360;-79
2022/03/04 01:52:35;;;;;;;;;;;2.10;99.90;;;;;;4950364;28;19938;-79
2022/03/04 01:55:02;;;;;;;;;;;2.10;99.90;;;;;;4945747;28;19938;-78
2022/03/04 01:57:29;;;;;;;;;;;2.10;99.90;;;;;;4946088;28;20401;-79
2022/03/04 01:59:55;;;;;;;;;;;2.00;99.90;;;;;;4940826;28;20577;-79
2022/03/04 02:02:22;;;;;;;;;;;2.00;99.90;;;;;;4945724;28;19934;-79
2022/03/04 02:04:50;;;;;;;;;;;2.00;99.90;;;;;;4943295;28;19927;-79
2022/03/04 02:07:20;;;;;;;;;;;2.00;99.90;;;;;;4928417;29;19958;-79
2022/03/04 02:09:48;;;;;;;;;;;2.00;99.90;;;;;;4948441;28;21229;-78
2022/03/04 02:12:15;;;;;;;;;;;2.00;99.90;;;;;;4946581;28;20340;-79
2022/03/04 02:14:42;;;;;;;;;;;2.00;99.90;;;;;;4931243;29;19977;-78
2022/03/04 02:17:09;;;;;;;;;;;2.00;99.90;;;;;;4947347;28;19934;-79
2022/03/04 02:19:36;;;;;;;;;;;2.00;99.90;;;;;;4949018;28;20480;-78
2022/03/04 02:22:05;;;;;;;;;;;2.00;99.90;;;;;;4946753;28;20623;-79
2022/03/04 02:24:32;;;;;;;;;;;1.90;99.90;;;;;;4947191;28;20021;-78
2022/03/04 02:27:01;;;;;;;;;;;2.00;99.90;;;;;;4945397;28;19982;-79
2022/03/04 02:29:28;;;;;;;;;;;1.90;99.90;;;;;;4936420;28;19973;-79
2022/03/04 02:31:55;;;;;;;;;;;1.90;99.90;;;;;;4945651;28;19938;-78
2022/03/04 02:34:22;;;;;;;;;;;1.90;99.90;;;;;;4946136;28;19937;-78
2022/03/04 02:36:49;;;;;;;;;;;1.90;99.90;;;;;;4946520;28;19926;-78
2022/03/04 02:39:19;;;;;;;;;;;1.80;99.90;;;;;;4947361;28;19993;-79
2022/03/04 02:41:46;;;;;;;;;;;1.80;99.90;;;;;;4944379;28;19926;-78
2022/03/04 02:44:14;;;;;;;;;;;1.80;99.90;;;;;;4885707;28;1820438;-78
2022/03/04 02:46:41;;;;;;;;;;;1.80;99.90;;;;;;4949843;28;19930;-78
2022/03/04 02:49:09;;;;;;;;;;;1.80;99.90;;;;;;4930213;28;19927;-78
2022/03/04 02:51:36;;;;;;;;;;;1.80;99.90;;;;;;4947073;28;20472;-78
2022/03/04 02:54:03;;;;;;;;;;;1.80;99.90;;;;;;4948542;28;19978;-78
2022/03/04 02:56:32;;;;;;;;;;;1.80;99.90;;;;;;4950433;28;19927;-79
2022/03/04 02:58:59;;;;;;;;;;;1.80;99.90;;;;;;4947327;28;19934;-78
2022/03/04 03:01:25;;;;;;;;;;;1.80;99.90;;;;;;4949067;28;19933;-78
2022/03/04 03:03:52;;;;;;;;;;;1.70;99.90;;;;;;4933308;29;19931;-78
2022/03/04 03:06:19;;;;;;;;;;;1.70;99.90;;;;;;4949704;28;19974;-78
2022/03/04 03:08:46;;;;;;;;;;;1.70;99.90;;;;;;4947822;28;19974;-78
2022/03/04 03:11:13;;;;;;;;;;;1.70;99.90;;;;;;4950050;28;19966;-78
2022/03/04 03:13:42;;;;;;;;;;;1.70;99.90;;;;;;4951745;28;19935;-78
2022/03/04 03:16:08;;;;;;;;;;;1.70;99.90;;;;;;4949659;28;20029;-79
2022/03/04 03:18:36;;;;;;;;;;;1.70;99.90;;;;;;4947275;28;19962;-79
2022/03/04 03:21:03;;;;;;;;;;;1.60;99.90;;;;;;4954281;28;19989;-79
2022/03/04 03:23:30;;;;;;;;;;;1.60;99.90;;;;;;4931534;29;19927;-78
2022/03/04 03:25:57;;;;;;;;;;;1.60;99.90;;;;;;4945537;28;19930;-79
2022/03/04 03:28:24;;;;;;;;;;;1.60;99.90;;;;;;4949113;28;19937;-79
2022/03/04 03:30:52;;;;;;;;;;;1.60;99.90;;;;;;4932741;28;19926;-78
2022/03/04 03:33:19;;;;;;;;;;;1.60;99.90;;;;;;4944623;28;19973;-79
2022/03/04 03:35:46;;;;;;;;;;;1.60;99.90;;;;;;4948446;28;19937;-78
2022/03/04 03:38:13;;;;;;;;;;;1.60;99.90;;;;;;4932194;28;19935;-78
2022/03/04 03:40:40;;;;;;;;;;;1.50;99.90;;;;;;4947035;28;19933;-78
2022/03/04 03:43:07;;;;;;;;;;;1.50;99.90;;;;;;4948442;28;19926;-79
2022/03/04 03:45:34;;;;;;;;;;;1.50;99.90;;;;;;4945906;28;19926;-78
2022/03/04 03:48:02;;;;;;;;;;;1.50;99.90;;;;;;4949460;28;19933;-78
2022/03/04 03:50:30;;;;;;;;;;;1.50;99.90;;;;;;4946642;28;19984;-78
2022/03/04 03:52:57;;;;;;;;;;;1.50;99.90;;;;;;4947121;28;20025;-79
2022/03/04 03:55:24;;;;;;;;;;;1.50;99.90;;;;;;4946331;28;19941;-78
2022/03/04 03:57:51;;;;;;;;;;;1.50;99.90;;;;;;4949808;28;19927;-78
2022/03/04 04:00:18;;;;;;;;;;;1.50;99.90;;;;;;4945163;28;19930;-78
2022/03/04 04:02:44;;;;;;;;;;;1.40;99.90;;;;;;4946605;28;19962;-78
2022/03/04 04:05:13;;;;;;;;;;;1.40;99.90;;;;;;4948982;28;19930;-78
2022/03/04 04:07:40;;;;;;;;;;;1.40;99.90;;;;;;4945038;28;19926;-78
2022/03/04 04:10:10;;;;;;;;;;;1.40;99.90;;;;;;4929832;28;20087;-78
2022/03/04 04:12:37;;;;;;;;;;;1.40;99.90;;;;;;4944762;28;20406;-78
2022/03/04 04:15:04;;;;;;;;;;;1.40;99.90;;;;;;4946053;28;19927;-78
2022/03/04 04:17:31;;;;;;;;;;;1.40;99.90;;;;;;4946632;28;20081;-78
2022/03/04 04:19:58;;;;;;;;;;;1.40;99.90;;;;;;4930529;28;19950;-79
2022/03/04 04:22:26;;;;;;;;;;;1.40;99.90;;;;;;4947713;28;19930;-78
2022/03/04 04:24:53;;;;;;;;;;;1.40;99.90;;;;;;4943227;28;19931;-78
2022/03/04 04:27:20;;;;;;;;;;;1.30;99.90;;;;;;4945037;28;19927;-78
2022/03/04 04:29:47;;;;;;;;;;;1.30;99.90;;;;;;4945814;28;19927;-78
2022/03/04 04:32:14;;;;;;;;;;;1.30;99.90;;;;;;4946261;28;19934;-78
2022/03/04 04:34:40;;;;;;;;;;;1.30;99.90;;;;;;4943144;28;20473;-79
2022/03/04 04:37:07;;;;;;;;;;;1.30;99.90;;;;;;4949796;28;20323;-79
2022/03/04 04:39:36;;;;;;;;;;;1.30;99.90;;;;;;4927486;29;20353;-78
2022/03/04 04:42:03;;;;;;;;;;;1.30;99.90;;;;;;4929529;29;19934;-78
2022/03/04 04:44:30;;;;;;;;;;;1.30;99.90;;;;;;4944848;28;19926;-77
2022/03/04 04:46:57;;;;;;;;;;;1.30;99.90;;;;;;4944453;28;20021;-79
2022/03/04 04:49:25;;;;;;;;;;;1.30;99.90;;;;;;4947492;28;20336;-79
2022/03/04 04:51:52;;;;;;;;;;;1.30;99.90;;;;;;4944921;28;19934;-79
2022/03/04 04:54:19;;;;;;;;;;;1.30;99.90;;;;;;4947037;28;20361;-79
2022/03/04 04:56:47;;;;;;;;;;;1.30;99.90;;;;;;4943451;28;19926;-79
2022/03/04 04:59:14;;;;;;;;;;;1.20;99.90;;;;;;4943326;28;19934;-79
2022/03/04 05:01:41;;;;;;;;;;;1.20;99.90;;;;;;4949318;28;19938;-79
2022/03/04 05:04:09;;;;;;;;;;;1.20;99.90;;;;;;4942996;28;19926;-79
2022/03/04 05:06:36;;;;;;;;;;;1.10;99.90;;;;;;4946868;28;19945;-79
2022/03/04 05:09:02;;;;;;;;;;;1.10;99.90;;;;;;4932681;29;19927;-78
2022/03/04 05:11:30;;;;;;;;;;;1.10;99.90;;;;;;4955310;28;19934;-79
2022/03/04 05:13:58;;;;;;;;;;;1.10;99.90;;;;;;4950436;28;20021;-79
2022/03/04 05:16:25;;;;;;;;;;;1.10;99.90;;;;;;4948217;28;19927;-78
2022/03/04 05:18:52;;;;;;;;;;;1.10;99.90;;;;;;4952863;28;19989;-78
2022/03/04 05:21:19;;;;;;;;;;;1.10;99.90;;;;;;4935994;28;19933;-79
2022/03/04 05:24:00;;;;;;;;;;;1.10;99.90;;;;;;4952940;28;19934;-79
2022/03/04 05:26:28;;;;;;;;;;;1.10;99.90;;;;;;4948045;28;19961;-79
2022/03/04 05:28:55;;;;;;;;;;;1.10;99.90;;;;;;4951643;29;20297;-79
2022/03/04 05:31:23;;;;;;;;;;;1.10;99.90;;;;;;4931676;28;20333;-79
2022/03/04 05:33:50;;;;;;;;;;;1.10;99.90;;;;;;4950582;28;19926;-78
2022/03/04 05:36:17;;;;;;;;;;;1.00;99.90;;;;;;4927162;28;19930;-79
2022/03/04 05:38:44;;;;;;;;;;;1.00;99.90;;;;;;4954486;28;19951;-79
2022/03/04 05:41:11;;;;;;;;;;;1.00;99.90;;;;;;4955640;28;19936;-78
2022/03/04 05:43:38;;;;;;;;;;;1.00;99.90;;;;;;4956469;28;19927;-79
2022/03/04 05:46:06;;;;;;;;;;;0.90;99.90;;;;;;4936393;28;20025;-79
2022/03/04 05:48:34;;;;;;;;;;;0.90;99.90;;;;;;4954349;28;19969;-79
2022/03/04 05:51:01;;;;;;;;;;;0.90;99.90;;;;;;4943120;28;19926;-79
2022/03/04 05:53:28;;;;;;;;;;;0.90;99.90;;;;;;4951827;28;19933;-79
2022/03/04 05:55:55;;;;;;;;;;;0.90;99.90;;;;;;4950982;28;20029;-79
2022/03/04 05:58:22;;;;;;;;;;;0.90;99.90;;;;;;4938777;29;19937;-79
2022/03/04 06:00:49;;;;;;;;;;;0.90;99.90;;;;;;4946395;28;19927;-79
2022/03/04 06:03:16;;;;;;;;;;;0.90;99.90;;;;;;4930511;28;19930;-79
2022/03/04 06:05:44;;;;;;;;;;;0.90;99.90;;;;;;4949607;28;19931;-79
2022/03/04 06:08:11;;;;;;;;;;;0.80;99.90;;;;;;4949948;28;19930;-79
2022/03/04 06:10:38;;;;;;;;;;;0.80;99.90;;;;;;4947825;28;20410;-79
2022/03/04 06:13:05;;;;;;;;;;;0.80;99.90;;;;;;4934138;28;20013;-79
2022/03/04 06:15:32;;;;;;;;;;;0.80;99.90;;;;;;4953556;28;19938;-79
2022/03/04 06:17:59;;;;;;;;;;;0.80;99.90;;;;;;4951939;28;19926;-79
2022/03/04 06:20:27;;;;;;;;;;;0.70;99.90;;;;;;4956899;28;19934;-79
2022/03/04 06:22:56;;;;;;;;;;;0.80;99.90;;;;;;4953485;29;20482;-79
2022/03/04 06:25:23;;;;;;;;;;;0.80;99.90;;;;;;4950992;28;20017;-79
2022/03/04 06:27:54;;;;;;;;;;;0.80;99.90;;;;;;4932836;29;20444;-79
2022/03/04 06:30:22;;;;;;;;;;;0.70;99.90;;;;;;4951539;28;19931;-79
2022/03/04 06:32:50;;;;;;;;;;;0.70;99.90;;;;;;4952751;28;19990;-79
2022/03/04 06:35:17;;;;;;;;;;;0.80;99.90;;;;;;4937120;29;20005;-79
2022/03/04 06:37:44;;;;;;;;;;;0.80;99.90;;;;;;4945903;28;20209;-79
2022/03/04 06:40:13;;;;;;;;;;;0.80;99.90;;;;;;4956221;28;19935;-79
2022/03/04 06:42:42;;;;;;;;;;;0.80;99.90;;;;;;4950262;28;19936;-79
2022/03/04 06:45:09;;;;;;;;;;;0.80;99.90;;;;;;4946775;28;19930;-79
2022/03/04 06:47:36;;;;;;;;;;;0.70;99.90;;;;;;4952662;28;20286;-79
2022/03/04 06:50:04;;;;;;;;;;;0.70;99.90;;;;;;4950266;28;19926;-79
2022/03/04 06:52:31;;;;;;;;;;;0.80;99.90;;;;;;4958713;28;20021;-79
2022/03/04 06:54:58;;;;;;;;;;;0.70;99.90;;;;;;4952201;28;19930;-80
2022/03/04 06:57:26;;;;;;;;;;;0.70;99.90;;;;;;4951218;28;19936;-79
2022/03/04 06:59:53;;;;;;;;;;;0.70;99.90;;;;;;4952005;28;19927;-79
2022/03/04 07:02:20;;;;;;;;;;;0.70;99.90;;;;;;4950776;28;19938;-79
2022/03/04 07:04:49;;;;;;;;;;;0.70;99.90;;;;;;4952633;28;20053;-79
2022/03/04 07:07:15;;;;;;;;;;;0.70;99.90;;;;;;4953254;28;20608;-79
2022/03/04 07:09:42;;;;;;;;;;;0.70;99.90;;;;;;4954779;28;19926;-79
2022/03/04 07:12:09;;;;;;;;;;;0.70;99.90;;;;;;4954399;28;19941;-79
2022/03/04 07:14:38;;;;;;;;;;;0.70;99.90;;;;;;4956828;28;20021;-79
2022/03/04 07:17:05;;;;;;;;;;;0.70;99.90;;;;;;4950840;28;19926;-79
2022/03/04 07:19:32;;;;;;;;;;;0.70;99.90;;;;;;4952064;28;19953;-79
2022/03/04 07:21:59;;;;;;;;;;;0.70;99.90;;;;;;4951367;28;20370;-79
2022/03/04 07:24:25;;;;;;;;;;;0.70;99.90;;;;;;4956710;28;19937;-79
2022/03/04 07:26:52;;;;;;;;;;;0.80;99.90;;;;;;4951762;28;20585;-79
2022/03/04 07:29:20;;;;;;;;;;;0.70;99.90;;;;;;4958441;28;19935;-80
2022/03/04 07:31:48;;;;;;;;;;;0.70;99.90;;;;;;4951706;28;19926;-79
2022/03/04 07:34:15;;;;;;;;;;;0.70;99.90;;;;;;4947824;28;19930;-79
2022/03/04 07:36:42;;;;;;;;;;;0.70;99.90;;;;;;4951478;28;19934;-79
2022/03/04 07:39:09;;;;;;;;;;;0.70;99.90;;;;;;4929887;28;19927;-79
2022/03/04 07:41:36;;;;;;;;;;;0.70;99.90;;;;;;4957446;28;19948;-79
2022/03/04 07:44:03;;;;;;;;;;;0.70;99.90;;;;;;4950858;28;20290;-79
2022/03/04 07:46:30;;;;;;;;;;;0.70;99.90;;;;;;4947916;28;19926;-79
2022/03/04 07:48:58;;;;;;;;;;;0.70;99.90;;;;;;4956425;28;19930;-79
2022/03/04 07:51:25;;;;;;;;;;;0.70;99.90;;;;;;4940672;28;19930;-79
2022/03/04 07:53:52;;;;;;;;;;;0.70;99.90;;;;;;4951818;28;19937;-79
2022/03/04 07:56:19;;;;;;;;;;;0.70;99.90;;;;;;4953800;28;19926;-79
2022/03/04 07:58:46;;;;;;;;;;;0.70;99.90;;;;;;4943577;29;19936;-79
2022/03/04 08:01:13;;;;;;;;;;;0.70;99.90;;;;;;4957186;28;20379;-79
2022/03/04 08:03:40;;;;;;;;;;;0.70;99.90;;;;;;4952899;28;19926;-79
2022/03/04 08:06:08;;;;;;;;;;;0.70;99.90;;;;;;4949229;28;21141;-79
2022/03/04 08:08:36;;;;;;;;;;;0.70;99.90;;;;;;4948514;28;19930;-79
2022/03/04 08:11:03;;;;;;;;;;;0.70;99.90;;;;;;4950664;28;19927;-79
2022/03/04 08:13:30;;;;;;;;;;;0.70;99.90;;;;;;4941283;29;20420;-79
2022/03/04 08:15:57;;;;;;;;;;;0.70;99.90;;;;;;4954773;28;19976;-79
2022/03/04 08:18:24;;;;;;;;;;;0.70;99.90;;;;;;4953359;28;20017;-79
2022/03/04 08:20:51;;;;;;;;;;;0.70;99.90;;;;;;4949681;28;20009;-79
2022/03/04 08:23:20;;;;;;;;;;;0.60;99.90;;;;;;4953807;28;19945;-79
2022/03/04 08:25:49;;;;;;;;;;;0.70;99.90;;;;;;4948284;28;19931;-79
2022/03/04 08:28:16;;;;;;;;;;;0.70;99.90;;;;;;4947221;28;19940;-79
2022/03/04 08:30:43;;;;;;;;;;;0.60;99.90;;;;;;4951288;28;19934;-79
2022/03/04 08:33:10;;;;;;;;;;;0.60;99.90;;;;;;4954937;28;19931;-79
2022/03/04 08:35:37;;;;;;;;;;;0.70;99.90;;;;;;4941973;28;19933;-79
2022/03/04 08:38:04;;;;;;;;;;;0.60;99.90;;;;;;4947300;28;19926;-79
2022/03/04 08:40:32;;;;;;;;;;;0.60;99.90;;;;;;4949132;28;19933;-79
2022/03/04 08:42:59;;;;;;;;;;;0.60;99.90;;;;;;4940595;28;19974;-79
2022/03/04 08:45:26;;;;;;;;;;;0.60;99.90;;;;;;4956688;28;20017;-79
2022/03/04 08:47:53;;;;;;;;;;;0.60;99.90;;;;;;4947735;28;19927;-79
2022/03/04 08:50:21;;;;;;;;;;;0.60;99.90;;;;;;4947604;28;19934;-79
2022/03/04 08:52:49;;;;;;;;;;;0.60;99.90;;;;;;4951224;29;19926;-79
2022/03/04 08:55:16;;;;;;;;;;;0.60;99.90;;;;;;4950374;28;19941;-79
2022/03/04 08:57:45;;;;;;;;;;;0.60;99.90;;;;;;4948235;28;19985;-79
2022/03/04 09:00:13;;;;;;;;;;;0.60;99.90;;;;;;4949573;28;19934;-79
2022/03/04 09:02:40;;;;;;;;;;;0.70;99.90;;;;;;4945227;28;19934;-79
2022/03/04 09:05:07;;;;;;;;;;;0.60;99.90;;;;;;4949769;28;20419;-79
2022/03/04 09:07:34;;;;;;;;;;;0.60;99.90;;;;;;4953478;28;19980;-79
2022/03/04 09:10:04;;;;;;;;;;;0.60;99.90;;;;;;4951193;28;19937;-79
2022/03/04 09:12:31;;;;;;;;;;;0.60;99.90;;;;;;4950753;28;19954;-79
2022/03/04 09:15:00;;;;;;;;;;;0.60;99.90;;;;;;4946338;28;19952;-79
2022/03/04 09:17:28;;;;;;;;;;;0.70;99.90;;;;;;4947391;28;19933;-79
2022/03/04 09:19:55;;;;;;;;;;;0.60;99.90;;;;;;4935895;29;20329;-79
2022/03/04 09:22:22;;;;;;;;;;;0.70;99.90;;;;;;4948781;28;20021;-79
2022/03/04 09:24:49;;;;;;;;;;;0.60;99.90;;;;;;4951989;28;19980;-79
2022/03/04 09:27:16;;;;;;;;;;;0.70;99.90;;;;;;4937130;28;19936;-79
2022/03/04 09:29:43;;;;;;;;;;;0.70;99.90;;;;;;4951468;28;19927;-79
2022/03/04 09:32:11;;;;;;;;;;;0.70;99.90;;;;;;4935118;28;19930;-80
2022/03/04 09:34:38;;;;;;;;;;;0.70;99.90;;;;;;4949083;28;19926;-78
2022/03/04 09:37:05;;;;;;;;;;;0.70;99.90;;;;;;4953998;28;19966;-79
2022/03/04 09:39:33;;;;;;;;;;;0.70;99.90;;;;;;4943659;28;19926;-79
2022/03/04 09:42:00;;;;;;;;;;;0.70;99.90;;;;;;4949855;28;19970;-78
2022/03/04 09:44:27;;;;;;;;;;;0.70;99.90;;;;;;4950233;28;19977;-78
2022/03/04 09:46:56;;;;;;;;;;;0.70;99.90;;;;;;4954258;28;19934;-78
2022/03/04 09:49:28;;;;;;;;;;;0.70;99.90;;;;;;4934112;28;20337;-79
2022/03/04 09:51:54;;;;;;;;;;;0.70;99.90;;;;;;4937835;29;20029;-79
2022/03/04 09:54:21;;;;;;;;;;;0.70;99.90;;;;;;4944080;28;19930;-79
2022/03/04 09:56:48;;;;;;;;;;;0.70;99.90;;;;;;4946334;28;19933;-80
2022/03/04 09:59:16;;;;;;;;;;;0.70;99.90;;;;;;4950490;28;19934;-78
2022/03/04 10:01:43;;;;;;;;;;;0.70;99.90;;;;;;4953231;28;20014;-79
2022/03/04 10:04:10;;;;;;;;;;;0.70;99.90;;;;;;4947609;28;19927;-79
2022/03/04 10:06:39;;;;;;;;;;;0.80;99.90;;;;;;4953748;28;20021;-80
2022/03/04 10:09:06;;;;;;;;;;;0.80;99.90;;;;;;4950294;28;20017;-79
2022/03/04 10:11:34;;;;;;;;;;;0.80;99.90;;;;;;4949052;28;19938;-79
2022/03/04 10:14:01;;;;;;;;;;;0.80;99.90;;;;;;4952976;28;19926;-79
2022/03/04 10:16:30;;;;;;;;;;;0.80;99.90;;;;;;4955835;28;19926;-79
2022/03/04 10:19:10;;;;;;;;;;;0.80;99.90;;;;;;4947664;28;19946;-79
2022/03/04 10:21:52;;;;;;;;;;;0.90;99.90;;;;;;4947305;28;20401;-79
2022/03/04 10:24:21;;;;;;;;;;;0.90;99.90;;;;;;4939734;29;19931;-79
2022/03/04 10:26:48;;;;;;;;;;;0.90;99.90;;;;;;4939838;28;19933;-79
2022/03/04 10:29:19;;;;;;;;;;;0.90;99.90;;;;;;4939477;28;19935;-79
2022/03/04 10:32:01;;;;;;;;;;;0.90;99.90;;;;;;4955016;28;19931;-79
2022/03/04 10:34:28;;;;;;;;;;;0.90;99.90;;;;;;4957210;28;19933;-80
2022/03/04 10:36:56;;;;;;;;;;;0.90;99.90;;;;;;4951797;28;20444;-79
2022/03/04 10:39:23;;;;;;;;;;;1.00;99.90;;;;;;4957016;28;19969;-79
2022/03/04 10:41:50;;;;;;;;;;;1.00;99.90;;;;;;4958309;28;19936;-79
2022/03/04 10:44:25;;;;;;;;;;;1.00;99.90;;;;;;4952571;28;19930;-79
2022/03/04 10:46:55;;;;;;;;;;;1.00;99.90;;;;;;4954941;28;19935;-80
2022/03/04 10:49:24;;;;;;;;;;;1.00;99.90;;;;;;4958533;28;19931;-79
2022/03/04 10:51:57;;;;;;;;;;;1.00;99.90;;;;;;4939331;28;19934;-79
2022/03/04 10:54:25;;;;;;;;;;;1.00;99.90;;;;;;4953340;28;20033;-79
2022/03/04 10:56:54;;;;;;;;;;;1.00;99.90;;;;;;4939532;29;19935;-80
2022/03/04 10:59:22;;;;;;;;;;;1.10;99.90;;;;;;4929627;28;19926;-79
2022/03/04 11:01:49;;;;;;;;;;;1.10;99.90;;;;;;4951696;28;19979;-79
2022/03/04 11:04:18;;;;;;;;;;;1.10;99.90;;;;;;4936377;29;20430;-79
2022/03/04 11:06:46;;;;;;;;;;;1.10;99.90;;;;;;4955651;28;20336;-79
2022/03/04 11:09:13;;;;;;;;;;;1.10;99.90;;;;;;4959315;28;20025;-79
2022/03/04 11:11:43;;;;;;;;;;;1.10;99.90;;;;;;4936352;28;19931;-79
2022/03/04 11:14:10;;;;;;;;;;;1.20;99.90;;;;;;4959133;28;19965;-79
2022/03/04 11:16:38;;;;;;;;;;;1.10;99.90;;;;;;4947948;28;19959;-79
2022/03/04 11:19:06;;;;;;;;;;;1.20;99.90;;;;;;4931210;29;19927;-79
2022/03/04 11:21:33;;;;;;;;;;;1.20;99.90;;;;;;4950765;28;20464;-79
2022/03/04 11:24:00;;;;;;;;;;;1.20;99.90;;;;;;4953225;28;19927;-79
2022/03/04 11:26:30;;;;;;;;;;;1.20;99.90;;;;;;4949058;28;19978;-79
2022/03/04 11:28:59;;;;;;;;;;;1.20;99.90;;;;;;4948007;28;19934;-78
2022/03/04 11:31:28;;;;;;;;;;;1.20;99.90;;;;;;4934136;28;19945;-82
2022/03/04 11:33:56;;;;;;;;;;;1.20;99.90;;;;;;4951810;28;19934;-80
2022/03/04 11:36:25;;;;;;;;;;;1.20;99.90;;;;;;4945173;28;19930;-79
2022/03/04 11:39:01;;;;;;;;;;;1.20;99.90;;;;;;4950934;28;19941;-79
2022/03/04 11:41:34;;;;;;;;;;;1.20;99.90;;;;;;4948286;28;20180;-80
2022/03/04 11:44:12;;;;;;;;;;;1.30;99.90;;;;;;4935176;29;19933;-82
2022/03/04 11:46:46;;;;;;;;;;;1.60;99.60;;;;;;4954895;28;20478;-81
2022/03/04 11:49:47;;;;;;;;;;;1.50;99.70;;;;;;4951291;28;19926;-82
2022/03/04 11:52:21;;;;;;;;;;;1.50;99.90;;;;;;4950284;28;20472;-81
2022/03/04 11:55:06;;;;;;;;;;;1.40;99.90;;;;;;4949041;28;19981;-81
2022/03/04 11:57:36;;;;;;;;;;;1.50;99.90;;;;;;4940345;28;19934;-81
2022/03/04 12:00:23;;;;;;;;;;;1.40;99.90;;;;;;4920819;28;20345;-81
2022/03/04 12:02:52;;;;;;;;;;;1.40;99.90;;;;;;4952517;28;19926;-82
2022/03/04 12:05:28;;;;;;;;;;;1.50;99.90;;;;;;4955825;28;20385;-81
2022/03/04 12:08:09;;;;;;;;;;;1.50;99.90;;;;;;4953238;28;20432;-81
2022/03/04 12:10:40;;;;;;;;;;;1.50;99.90;;;;;;4954445;28;20345;-82
2022/03/04 12:13:08;;;;;;;;;;;1.50;99.90;;;;;;4946722;28;20038;-82
2022/03/04 12:15:38;;;;;;;;;;;1.60;99.90;;;;;;4956271;28;19930;-82
2022/03/04 12:18:07;;;;;;;;;;;1.60;99.90;;;;;;4953008;28;19934;-83
2022/03/04 12:20:49;;;;;;;;;;;1.60;99.90;;;;;;4950031;28;19958;-81
2022/03/04 12:23:17;;;;;;;;;;;1.60;99.90;;;;;;4938372;28;19926;-81
2022/03/04 12:26:02;;;;;;;;;;;1.60;99.90;;;;;;4960110;28;19982;-83
2022/03/04 12:28:35;;;;;;;;;;;1.70;99.90;;;;;;4961130;28;19927;-81
2022/03/04 12:31:20;;;;;;;;;;;1.70;99.90;;;;;;4951118;28;19972;-82
2022/03/04 12:33:50;;;;;;;;;;;1.70;99.90;;;;;;4956906;29;19933;-81
2022/03/04 12:36:18;;;;;;;;;;;1.80;99.90;;;;;;4960009;28;19933;-81
2022/03/04 12:38:46;;;;;;;;;;;1.80;99.90;;;;;;4961868;28;19969;-84
2022/03/04 12:41:16;;;;;;;;;;;1.80;99.90;;;;;;4965264;28;20344;-82
2022/03/04 12:43:47;;;;;;;;;;;1.80;99.90;;;;;;4964726;28;19926;-81
2022/03/04 12:55:36;;;;;;;;;;;1.90;99.90;;;;;;5550187;23;19933;-81
2022/03/04 12:58:21;;;;;;;;;;;2.00;99.90;;;;;;4987382;28;19926;-82
2022/03/04 13:01:18;;;;;;;;;;;2.10;99.90;;;;;;4972696;28;19926;-83
2022/03/04 13:06:48;;;;;;;;;;;2.20;99.90;;;;;;4964177;29;19926;-82
2022/03/04 13:09:17;;;;;;;;;;;2.20;99.90;;;;;;4953666;29;19934;-81
2022/03/04 13:11:46;;;;;;;;;;;2.30;99.90;;;;;;4943457;29;19998;-82
2022/03/04 13:14:19;;;;;;;;;;;2.30;99.90;;;;;;4940821;29;20367;-81
2022/03/04 13:16:47;;;;;;;;;;;2.30;99.90;;;;;;4955740;29;19927;-81
2022/03/04 13:19:16;;;;;;;;;;;2.40;99.90;;;;;;4935348;29;20304;-82
2022/03/04 13:21:46;;;;;;;;;;;2.40;99.90;;;;;;4941806;28;19933;-81
2022/03/04 13:24:19;;;;;;;;;;;2.40;99.90;;;;;;4953815;29;20316;-82
2022/03/04 13:26:48;;;;;;;;;;;2.50;99.90;;;;;;4951135;28;19930;-81
2022/03/04 13:29:16;;;;;;;;;;;2.50;99.90;;;;;;4952955;28;20025;-81
2022/03/04 13:31:43;;;;;;;;;;;2.60;99.90;;;;;;4951887;28;19933;-80
2022/03/04 13:34:19;;;;;;;;;;;2.60;99.90;;;;;;4954749;29;19981;-82
2022/03/04 13:36:50;;;;;;;;;;;2.60;99.90;;;;;;4957256;28;20401;-81
2022/03/04 13:39:24;;;;;;;;;;;2.70;99.90;;;;;;4950045;29;19934;-81
2022/03/04 13:42:06;;;;;;;;;;;2.70;99.90;;;;;;4954025;28;19934;-83
2022/03/04 13:44:34;;;;;;;;;;;2.80;99.90;;;;;;4945143;28;19974;-80
2022/03/04 13:47:07;;;;;;;;;;;2.80;99.90;;;;;;4933407;28;19954;-80
2022/03/04 13:49:44;;;;;;;;;;;2.80;99.90;;;;;;4949168;28;19958;-80
2022/03/04 13:52:11;;;;;;;;;;;2.80;99.90;;;;;;4935705;29;20397;-80
2022/03/04 13:54:56;;;;;;;;;;;2.90;96.50;;;;;;4945626;28;20558;-80
2022/03/04 13:57:41;;;;;;;;;;;3.10;97.60;;;;;;4949511;28;19934;-80
2022/03/04 14:00:10;;;;;;;;;;;3.10;98.90;;;;;;4949603;29;20389;-80
2022/03/04 14:02:44;;;;;;;;;;;3.10;99.40;;;;;;4953417;28;21318;-80
2022/03/04 14:05:12;;;;;;;;;;;3.10;99.20;;;;;;4949174;28;19997;-80
2022/03/04 14:07:40;;;;;;;;;;;3.20;98.90;;;;;;4954692;28;19971;-79
2022/03/04 14:10:11;;;;;;;;;;;3.20;99.40;;;;;;4936400;29;19934;-80
2022/03/04 14:12:38;;;;;;;;;;;3.20;99.20;;;;;;4949289;28;19926;-80
2022/03/04 14:15:06;;;;;;;;;;;3.20;99.30;;;;;;4953164;28;19935;-81
2022/03/04 14:17:33;;;;;;;;;;;3.30;98.80;;;;;;4953160;28;19930;-80
2022/03/04 14:20:00;;;;;;;;;;;3.30;98.80;;;;;;4926410;28;19930;-80
2022/03/04 14:22:27;;;;;;;;;;;3.30;98.90;;;;;;4939343;29;20021;-80
2022/03/04 14:24:54;;;;;;;;;;;3.40;98.60;;;;;;4953538;28;20468;-80
2022/03/04 14:27:22;;;;;;;;;;;3.40;98.40;;;;;;4954505;28;19927;-80
2022/03/04 14:29:49;;;;;;;;;;;3.40;99.00;;;;;;4950743;28;19981;-80
2022/03/04 14:32:16;;;;;;;;;;;3.50;98.60;;;;;;4936436;29;19934;-79
2022/03/04 14:34:43;;;;;;;;;;;3.50;98.90;;;;;;4949796;28;19926;-80
2022/03/04 14:37:10;;;;;;;;;;;3.50;98.00;;;;;;4952711;28;20301;-80
2022/03/04 14:39:37;;;;;;;;;;;3.50;98.60;;;;;;4935334;28;19926;-80
2022/03/04 14:42:04;;;;;;;;;;;3.50;98.10;;;;;;4956847;28;20372;-80
2022/03/04 14:44:34;;;;;;;;;;;3.60;98.80;;;;;;4932653;29;19934;-80
2022/03/04 14:47:01;;;;;;;;;;;3.60;97.90;;;;;;4953541;29;20392;-80
2022/03/04 14:49:29;;;;;;;;;;;3.60;97.30;;;;;;4934771;28;20409;-80
2022/03/04 14:51:56;;;;;;;;;;;3.60;97.80;;;;;;4949675;28;19933;-80